Time;durP1;ratioP1;P1;durP2;ratioP2;P2;SDS_P1;SDS_P2;PMS_P1;PMS_P2;Temp;Humidity;BMP_temperature;BMP_pressure;BME280_temperature;BME280_humidity;BME280_pressure;Samples;Min_cycle;Max_cycle;Signal;HPM_P1;HPM_P2
2022/06/30 00:02:12;;;;;;;19.95;12.77;;;;;;;20.72;100.00;94710.94;6304904;22;20186;-80
2022/06/30 00:04:47;;;;;;;20.02;11.25;;;;;;;20.54;100.00;94718.81;6302986;22;20627;-79
2022/06/30 00:07:27;;;;;;;20.38;11.38;;;;;;;20.42;100.00;94719.19;6302206;22;20152;-80
2022/06/30 00:10:10;;;;;;;15.68;10.63;;;;;;;20.41;100.00;94714.16;6301798;22;20156;-80
2022/06/30 00:13:00;;;;;;;15.65;9.70;;;;;;;20.38;100.00;94712.84;6302333;22;20218;-80
2022/06/30 00:15:42;;;;;;;19.90;9.55;;;;;;;20.29;100.00;94712.66;6301874;22;20714;-81
2022/06/30 00:18:20;;;;;;;16.33;9.77;;;;;;;20.29;100.00;94722.44;6300878;22;20595;-81
2022/06/30 00:20:58;;;;;;;15.02;10.38;;;;;;;20.29;100.00;94711.88;6300578;22;20634;-81
2022/06/30 00:23:40;;;;;;;17.73;11.60;;;;;;;20.31;100.00;94710.56;6298134;22;20168;-80
2022/06/30 00:26:20;;;;;;;17.92;11.23;;;;;;;20.35;100.00;94718.69;6300093;22;20160;-80
2022/06/30 00:31:46;;;;;;;16.88;8.93;;;;;;;20.31;100.00;94715.84;6301532;22;20207;-80
2022/06/30 00:34:23;;;;;;;9.98;7.97;;;;;;;20.34;100.00;94709.22;6300974;22;20231;-80
2022/06/30 00:36:59;;;;;;;12.23;8.52;;;;;;;20.32;100.00;94700.75;6302345;22;20785;-79
2022/06/30 00:39:39;;;;;;;11.10;7.78;;;;;;;20.33;100.00;94697.06;6301605;22;20152;-80
2022/06/30 00:42:14;;;;;;;12.55;8.20;;;;;;;20.39;100.00;94706.53;6301537;22;20710;-79
2022/06/30 00:44:49;;;;;;;12.43;8.02;;;;;;;20.41;100.00;94708.88;6300244;22;20176;-79
2022/06/30 00:47:22;;;;;;;11.23;8.52;;;;;;;20.38;100.00;94697.81;6302102;22;20163;-80
2022/06/30 00:49:58;;;;;;;12.95;8.57;;;;;;;20.36;100.00;94704.44;6303906;22;20175;-80
2022/06/30 00:52:40;;;;;;;13.57;8.25;;;;;;;20.32;100.00;94698.13;6302981;22;20195;-80
2022/06/30 00:55:17;;;;;;;13.30;8.43;;;;;;;20.28;100.00;94710.31;6301070;22;20156;-80
2022/06/30 00:57:56;;;;;;;11.57;8.52;;;;;;;20.21;100.00;94699.25;6296495;22;20257;-80
2022/06/30 01:00:36;;;;;;;14.77;8.40;;;;;;;20.29;100.00;94712.66;6298666;22;20233;-80
2022/06/30 01:03:19;;;;;;;14.93;8.18;;;;;;;20.31;100.00;94701.84;6299376;22;20157;-79
2022/06/30 01:06:03;;;;;;;16.70;8.48;;;;;;;20.30;100.00;94695.78;6301208;22;20620;-79
2022/06/30 01:08:37;;;;;;;12.38;8.02;;;;;;;20.27;100.00;94696.31;6303392;22;20239;-79
2022/06/30 01:14:00;;;;;;;11.50;8.23;;;;;;;20.21;100.00;94705.31;6300733;22;20160;-80
2022/06/30 01:16:35;;;;;;;11.32;7.93;;;;;;;20.16;100.00;94699.28;6300840;22;20161;-79
2022/06/30 01:19:18;;;;;;;17.05;8.90;;;;;;;20.09;100.00;94701.44;6300557;22;20179;-78
2022/06/30 01:22:08;;;;;;;15.30;8.35;;;;;;;19.94;100.00;94698.94;6300658;22;20180;-79
2022/06/30 01:24:48;;;;;;;13.00;9.00;;;;;;;19.98;100.00;94695.47;6301764;22;20164;-79
2022/06/30 01:27:26;;;;;;;15.27;8.48;;;;;;;19.93;100.00;94698.16;6301748;22;20568;-79
2022/06/30 01:30:07;;;;;;;12.18;8.75;;;;;;;19.89;100.00;94688.41;6300819;22;20302;-79
2022/06/30 01:32:48;;;;;;;12.43;8.98;;;;;;;19.87;100.00;94699.25;6302615;22;20236;-81
2022/06/30 01:35:28;;;;;;;13.35;8.60;;;;;;;19.76;100.00;94701.16;6303235;22;20555;-81
2022/06/30 01:38:15;;;;;;;11.00;8.63;;;;;;;19.53;100.00;94701.03;6302824;22;20251;-82
2022/06/30 01:40:51;;;;;;;12.32;9.05;;;;;;;19.41;100.00;94697.94;6302769;22;20639;-81
2022/06/30 01:43:27;;;;;;;16.10;8.80;;;;;;;19.28;100.00;94686.09;6303361;22;20167;-81
2022/06/30 01:46:03;;;;;;;12.20;8.25;;;;;;;19.34;100.00;94692.13;6301963;22;20553;-81
2022/06/30 01:48:44;;;;;;;12.77;8.95;;;;;;;19.45;100.00;94696.34;6301430;22;20193;-81
2022/06/30 01:51:22;;;;;;;12.13;7.85;;;;;;;19.52;100.00;94692.34;6301436;22;20178;-81
2022/06/30 01:54:08;;;;;;;14.52;8.63;;;;;;;19.55;100.00;94691.00;6299788;22;20249;-81
2022/06/30 01:56:43;;;;;;;10.88;8.15;;;;;;;19.53;100.00;94682.56;6301011;22;20183;-81
2022/06/30 01:59:20;;;;;;;13.80;8.35;;;;;;;19.36;100.00;94682.13;6304111;22;20152;-81
2022/06/30 02:01:55;;;;;;;16.13;8.43;;;;;;;19.20;100.00;94682.19;6302047;22;20794;-80
2022/06/30 02:07:21;;;;;;;15.57;8.23;;;;;;;19.28;100.00;94688.72;6302180;22;20548;-80
2022/06/30 02:09:59;;;;;;;16.25;8.57;;;;;;;19.36;100.00;94690.81;6301714;22;20183;-82
2022/06/30 02:12:51;;;;;;;11.23;8.48;;;;;;;19.44;100.00;94692.91;6301825;22;20156;-80
2022/06/30 02:15:37;;;;;;;13.13;8.27;;;;;;;19.19;100.00;94648.97;6301228;22;20167;-79
2022/06/30 02:18:14;;;;;;;12.27;8.27;;;;;;;19.52;100.00;94689.69;6300799;22;20160;-79
2022/06/30 02:20:49;;;;;;;14.65;8.18;;;;;;;19.45;100.00;94696.34;6299836;22;20270;-78
2022/06/30 02:23:26;;;;;;;15.43;8.57;;;;;;;19.34;100.00;94695.56;6301134;22;20158;-78
2022/06/30 02:26:12;;;;;;;15.73;9.00;;;;;;;19.35;100.00;94691.88;6300348;22;20220;-79
2022/06/30 02:28:48;;;;;;;17.77;8.75;;;;;;;19.35;100.00;94702.41;6299590;22;20152;-80
2022/06/30 02:31:28;;;;;;;11.55;8.15;;;;;;;19.36;100.00;94701.34;6300996;22;20155;-79
2022/06/30 02:34:07;;;;;;;12.70;8.57;;;;;;;19.34;100.00;94692.13;6302329;22;20243;-82
2022/06/30 02:36:49;;;;;;;14.90;8.38;;;;;;;19.39;100.00;94700.84;6300738;22;20153;-80
2022/06/30 02:39:24;;;;;;;13.35;8.18;;;;;;;19.37;100.00;94699.47;6301125;22;20674;-81
2022/06/30 02:42:03;;;;;;;14.43;8.45;;;;;;;19.32;100.00;94695.03;6300290;22;20180;-80
2022/06/30 02:44:43;;;;;;;15.73;9.02;;;;;;;19.46;100.00;94703.16;6301528;22;20623;-80
2022/06/30 02:47:17;;;;;;;15.60;9.05;;;;;;;19.47;100.00;94712.66;6301675;22;20205;-81
2022/06/30 02:49:54;;;;;;;13.32;8.70;;;;;;;19.37;100.00;94699.47;6301520;22;20178;-81
2022/06/30 02:52:34;;;;;;;16.52;9.18;;;;;;;19.14;100.00;94704.34;6300069;22;20191;-80
2022/06/30 02:55:15;;;;;;;21.38;8.25;;;;;;;18.82;100.00;94705.75;6300165;22;20599;-79
2022/06/30 02:57:58;;;;;;;18.65;8.38;;;;;;;18.60;100.00;94709.50;6300267;22;20206;-80
2022/06/30 03:00:38;;;;;;;14.80;9.10;;;;;;;18.38;100.00;94705.56;6301114;22;20152;-79
2022/06/30 03:03:18;;;;;;;16.55;8.55;;;;;;;18.28;100.00;94708.97;6301702;22;20156;-78
2022/06/30 03:05:57;;;;;;;19.53;8.70;;;;;;;18.12;100.00;94705.53;6302768;22;20187;-78
2022/06/30 03:08:34;;;;;;;14.80;9.07;;;;;;;17.92;100.00;94700.28;6301747;22;20248;-79
2022/06/30 03:11:16;;;;;;;26.90;10.13;;;;;;;17.94;100.00;94700.81;6299286;22;20163;-79
2022/06/30 03:13:57;;;;;;;13.70;7.70;;;;;;;17.99;100.00;94694.75;6299580;22;20158;-79
2022/06/30 03:16:34;;;;;;;15.10;7.73;;;;;;;18.01;100.00;94690.00;6302257;22;20159;-80
2022/06/30 03:19:15;;;;;;;14.32;7.75;;;;;;;18.07;100.00;94697.66;6301884;22;20164;-79
2022/06/30 03:21:49;;;;;;;17.53;7.70;;;;;;;18.03;100.00;94691.34;6303410;22;20179;-79
2022/06/30 03:24:27;;;;;;;12.23;6.97;;;;;;;18.09;100.00;94698.16;6303242;22;20160;-80
2022/06/30 03:27:08;;;;;;;17.70;7.60;;;;;;;18.17;100.00;94688.97;6300636;22;20235;-79
2022/06/30 03:29:57;;;;;;;19.13;7.82;;;;;;;18.27;100.00;94691.59;6301246;22;20152;-78
2022/06/30 03:32:36;;;;;;;19.20;8.20;;;;;;;18.53;100.00;94695.81;6301712;22;20231;-79
2022/06/30 03:35:12;;;;;;;26.20;9.10;;;;;;;18.57;100.00;94691.59;6298661;22;20878;-79
2022/06/30 03:37:47;;;;;;;17.00;8.67;;;;;;;18.64;100.00;94700.00;6300177;22;20190;-78
2022/06/30 03:40:23;;;;;;;20.92;9.07;;;;;;;18.67;100.00;94698.69;6302335;22;20515;-79
2022/06/30 03:43:03;;;;;;;23.47;9.07;;;;;;;18.72;100.00;94696.03;6301907;22;20179;-78
2022/06/30 03:45:45;;;;;;;15.20;9.20;;;;;;;18.81;100.00;94702.34;6302737;22;20612;-78
2022/06/30 03:48:27;;;;;;;14.98;9.15;;;;;;;18.85;100.00;94699.94;6301802;22;20533;-78
2022/06/30 03:51:06;;;;;;;17.45;8.25;;;;;;;18.90;100.00;94702.59;6300651;22;20160;-78
2022/06/30 03:53:39;;;;;;;24.58;8.85;;;;;;;18.92;100.00;94711.00;6301656;22;20487;-78
2022/06/30 03:56:16;;;;;;;18.35;9.30;;;;;;;18.95;100.00;94694.66;6302093;22;20641;-78
2022/06/30 03:58:52;;;;;;;17.58;8.35;;;;;;;18.97;100.00;94703.06;6266925;22;20201;-79
2022/06/30 04:01:38;;;;;;;20.45;9.07;;;;;;;19.00;100.00;94698.06;6269329;22;20191;-79
2022/06/30 04:04:16;;;;;;;20.13;8.65;;;;;;;19.05;100.00;94707.78;6270091;22;20208;-79
2022/06/30 04:06:51;;;;;;;22.98;8.73;;;;;;;19.08;100.00;94709.88;6269332;22;20257;-79
2022/06/30 04:09:27;;;;;;;16.90;8.18;;;;;;;19.10;100.00;94703.31;6271868;22;20199;-79
2022/06/30 04:12:02;;;;;;;20.65;8.45;;;;;;;19.07;100.00;94703.06;6270697;22;20981;-78
2022/06/30 04:14:38;;;;;;;12.35;7.57;;;;;;;19.05;100.00;94710.41;6269896;22;20251;-80
2022/06/30 04:17:17;;;;;;;16.00;7.57;;;;;;;18.96;100.00;94699.66;6270991;22;20153;-79
2022/06/30 04:19:55;;;;;;;14.07;8.57;;;;;;;19.02;99.92;94695.16;6270644;22;20222;-78
2022/06/30 04:22:35;;;;;;;16.10;9.63;;;;;;;19.03;100.00;94702.78;6271398;22;20203;-78
2022/06/30 04:25:13;;;;;;;25.00;8.85;;;;;;;19.27;100.00;94708.25;6272357;22;20184;-78
2022/06/30 04:27:58;;;;;;;19.05;8.27;;;;;;;19.35;100.00;94709.53;6270277;22;20554;-79
2022/06/30 04:33:34;;;;;;;15.48;9.02;;;;;;;19.66;100.00;94709.13;6270189;22;20180;-78
2022/06/30 04:36:23;;;;;;;17.88;9.50;;;;;;;19.71;100.00;94710.97;6269909;22;20244;-78
2022/06/30 04:38:58;;;;;;;24.52;9.90;;;;;;;19.81;100.00;94703.75;6268925;22;20212;-78
2022/06/30 04:41:31;;;;;;;22.98;12.25;;;;;;;19.95;99.45;94713.69;6269321;22;20714;-79
2022/06/30 04:44:05;;;;;;;12.55;10.00;;;;;;;20.00;100.00;94716.31;6271369;22;20157;-76
2022/06/30 04:46:41;;;;;;;19.52;11.73;;;;;;;20.01;100.00;94721.31;6268514;22;20171;-76
2022/06/30 04:49:21;;;;;;;19.63;9.82;;;;;;;20.05;100.00;94719.69;6266829;22;20181;-77
2022/06/30 04:51:58;;;;;;;21.10;13.10;;;;;;;20.05;100.00;94714.44;6266782;22;20506;-76
2022/06/30 04:54:35;;;;;;;25.40;13.63;;;;;;;20.02;100.00;94719.47;6267496;22;20161;-76
2022/06/30 04:57:14;;;;;;;23.88;13.60;;;;;;;20.03;100.00;94721.81;6275866;22;20893;-76
2022/06/30 04:59:50;;;;;;;27.60;14.75;;;;;;;20.11;100.00;94723.09;6300547;22;20160;-76
2022/06/30 05:02:18;;;;;;;23.10;14.48;;;;;;;20.10;100.00;94717.03;6259875;22;20180;-80
2022/06/30 05:04:51;;;;;;;19.70;13.20;;;;;;;20.09;100.00;94712.00;6300788;22;20561;-80
2022/06/30 05:07:21;;;;;;;20.30;12.70;;;;;;;20.24;100.00;94717.97;6300141;22;20250;-82
2022/06/30 05:09:49;;;;;;;25.25;12.60;;;;;;;20.30;100.00;94726.66;6300160;22;20647;-80
2022/06/30 05:12:23;;;;;;;19.85;12.65;;;;;;;20.37;100.00;94729.78;6301840;22;20512;-82
2022/06/30 05:14:55;;;;;;;23.60;13.70;;;;;;;20.43;100.00;94720.75;6300462;22;20160;-82
2022/06/30 05:17:31;;;;;;;25.45;13.10;;;;;;;20.43;100.00;94727.88;6300981;22;20234;-82
2022/06/30 05:20:04;;;;;;;22.92;12.98;;;;;;;20.43;100.00;94728.69;6301215;22;20156;-81
2022/06/30 05:22:39;;;;;;;21.73;13.25;;;;;;;20.41;100.00;94730.78;6300972;22;20180;-82
2022/06/30 05:27:59;;;;;;;26.02;13.85;;;;;;;20.47;100.00;94734.16;6301825;22;20662;-82
2022/06/30 05:30:28;;;;;;;33.42;13.05;;;;;;;20.46;100.00;94730.75;6299829;22;20794;-81
2022/06/30 05:32:59;;;;;;;26.40;13.57;;;;;;;20.57;100.00;94734.09;6298630;22;20685;-81
2022/06/30 05:35:36;;;;;;;28.98;13.68;;;;;;;20.67;100.00;94736.63;6297239;22;20243;-79
2022/06/30 05:38:09;;;;;;;19.85;13.38;;;;;;;20.80;100.00;94733.34;6300578;22;20156;-80
2022/06/30 05:40:39;;;;;;;29.10;14.10;;;;;;;20.74;100.00;94737.09;6301317;22;20167;-82
2022/06/30 05:43:13;;;;;;;25.02;12.98;;;;;;;20.75;100.00;94743.97;6300173;22;20188;-81
2022/06/30 05:45:45;;;;;;;24.73;13.55;;;;;;;20.78;100.00;94738.91;6299893;22;20642;-83
2022/06/30 05:48:19;;;;;;;23.38;13.23;;;;;;;20.78;100.00;94748.69;6297284;22;20172;-82
2022/06/30 05:50:51;;;;;;;22.75;14.63;;;;;;;20.85;100.00;94744.66;6302228;22;20982;-82
2022/06/30 05:53:24;;;;;;;32.25;14.30;;;;;;;20.91;100.00;94740.91;6302293;22;20299;-84
2022/06/30 05:55:57;;;;;;;20.55;14.02;;;;;;;21.05;100.00;94740.22;6302004;22;20196;-82
2022/06/30 05:58:32;;;;;;;24.80;14.27;;;;;;;21.01;100.00;94726.00;6300214;22;20200;-82
2022/06/30 06:01:04;;;;;;;22.75;13.50;;;;;;;21.15;99.88;94751.53;6301448;22;20156;-82
2022/06/30 06:03:36;;;;;;;27.70;14.07;;;;;;;21.12;100.00;94752.09;6300882;22;20186;-83
2022/06/30 06:06:07;;;;;;;29.48;12.90;;;;;;;21.18;100.00;94753.59;6301681;22;20160;-82
2022/06/30 06:08:40;;;;;;;25.80;14.05;;;;;;;21.28;100.00;94753.47;6297179;22;20152;-81
2022/06/30 06:11:13;;;;;;;21.15;14.32;;;;;;;21.31;99.24;94741.56;6297203;22;20615;-81
2022/06/30 06:13:49;;;;;;;22.15;13.82;;;;;;;21.36;98.45;94749.41;6297720;22;20235;-80
2022/06/30 06:16:24;;;;;;;25.45;14.05;;;;;;;21.44;98.32;94754.09;6299102;22;20160;-79
2022/06/30 06:18:55;;;;;;;31.70;14.57;;;;;;;21.50;97.71;94756.38;6301120;22;20194;-80
2022/06/30 06:21:32;;;;;;;22.15;12.95;;;;;;;21.56;96.91;94759.00;6298955;22;20810;-81
2022/06/30 06:24:09;;;;;;;22.48;12.63;;;;;;;21.66;96.27;94759.66;6300639;22;20198;-86
2022/06/30 06:26:43;;;;;;;28.95;12.48;;;;;;;21.73;95.01;94761.94;6300043;22;20191;-79
2022/06/30 06:29:14;;;;;;;27.98;12.85;;;;;;;21.78;94.06;94762.66;6298717;22;20151;-80
2022/06/30 06:31:47;;;;;;;21.58;12.48;;;;;;;21.80;93.27;94755.22;6301384;22;20164;-82
2022/06/30 06:34:17;;;;;;;21.17;12.65;;;;;;;21.83;92.33;94753.88;6299938;22;20153;-81
2022/06/30 06:36:47;;;;;;;26.70;11.82;;;;;;;21.87;92.55;94754.88;6298530;22;20165;-82
2022/06/30 06:39:19;;;;;;;22.40;12.43;;;;;;;21.94;92.32;94750.81;6298427;22;20276;-80
2022/06/30 06:41:49;;;;;;;20.55;12.60;;;;;;;;;;6299154;22;20646;-81
2022/06/30 06:44:22;;;;;;;24.02;11.90;;;;;;;22.02;90.90;94744.09;6302310;22;20167;-87
2022/06/30 06:46:56;;;;;;;17.25;11.32;;;;;;;22.05;90.55;94746.16;6302826;22;20157;-80
2022/06/30 06:49:28;;;;;;;19.45;12.38;;;;;;;22.13;89.13;94744.75;6298778;22;20183;-80
2022/06/30 06:52:06;;;;;;;22.52;12.50;;;;;;;22.18;89.02;94736.72;6297122;22;20171;-80
2022/06/30 06:54:43;;;;;;;20.92;12.52;;;;;;;22.12;88.77;94711.38;6297924;22;20235;-80
2022/06/30 06:57:14;;;;;;;22.88;12.18;;;;;;;22.27;87.85;94737.66;6294181;22;20219;-80
2022/06/30 06:59:46;;;;;;;20.67;11.65;;;;;;;22.35;86.86;94740.41;6299128;22;20290;-80
2022/06/30 07:02:18;;;;;;;24.50;11.52;;;;;;;22.44;85.68;94738.69;6297890;22;20199;-80
2022/06/30 07:04:49;;;;;;;23.15;11.43;;;;;;;22.51;86.32;94736.44;6298706;22;20156;-79
2022/06/30 07:07:25;;;;;;;16.52;11.85;;;;;;;22.55;85.59;94726.84;6298126;22;21030;-77
2022/06/30 07:10:02;;;;;;;19.67;11.75;;;;;;;22.67;86.39;94722.97;6299394;22;20164;-79
2022/06/30 07:12:35;;;;;;;27.92;12.35;;;;;;;22.73;85.63;94713.84;6274631;22;20200;-78
2022/06/30 07:15:11;;;;;;;17.23;11.20;;;;;;;22.92;85.27;94725.16;6300721;22;20156;-79
2022/06/30 07:17:46;;;;;;;19.05;11.13;;;;;;;23.01;84.37;94736.66;6297243;22;20587;-78
2022/06/30 07:20:18;;;;;;;26.45;11.82;;;;;;;22.95;83.41;94698.06;6297255;22;20209;-80
2022/06/30 07:22:54;;;;;;;13.02;10.48;;;;;;;23.21;81.40;94738.16;6295263;22;20177;-81
2022/06/30 07:25:23;;;;;;;16.20;10.57;;;;;;;23.27;82.05;94732.47;6298563;22;20156;-80
2022/06/30 07:27:51;;;;;;;14.20;9.15;;;;;;;23.36;82.84;94728.03;6303651;22;20177;-80
2022/06/30 07:30:22;;;;;;;17.13;9.05;;;;;;;23.43;81.45;94733.00;6303741;22;20172;-80
2022/06/30 07:32:50;;;;;;;18.77;10.65;;;;;;;23.58;81.07;94730.81;6304041;22;20214;-80
2022/06/30 07:35:22;;;;;;;14.77;10.18;;;;;;;23.70;80.33;94733.75;6303879;22;20655;-78
2022/06/30 07:37:54;;;;;;;18.35;10.32;;;;;;;23.78;80.14;94734.13;6305150;22;20174;-77
2022/06/30 07:40:23;;;;;;;18.25;10.98;;;;;;;23.80;79.60;94726.66;6304096;22;20160;-79
2022/06/30 07:42:52;;;;;;;17.10;9.85;;;;;;;23.91;78.61;94728.78;6304206;22;20195;-79
2022/06/30 07:45:22;;;;;;;10.77;7.93;;;;;;;23.98;78.33;94725.72;6302716;22;20176;-78
2022/06/30 07:47:53;;;;;;;21.73;9.90;;;;;;;24.07;77.48;94730.00;6303798;22;20172;-80
2022/06/30 07:50:23;;;;;;;16.60;9.93;;;;;;;24.17;76.59;94731.69;6304186;22;20475;-79
2022/06/30 07:52:53;;;;;;;16.15;9.57;;;;;;;24.23;75.72;94733.94;6304621;22;20611;-79
2022/06/30 07:55:23;;;;;;;11.48;8.98;;;;;;;24.33;75.64;94732.88;6298163;22;20172;-80
2022/06/30 07:58:22;;;;;;;14.82;8.77;;;;;;;24.36;74.33;94723.56;6303368;22;20542;-79
2022/06/30 08:00:51;;;;;;;14.07;7.47;;;;;;;24.50;74.83;94727.69;6303263;22;20599;-79
2022/06/30 08:03:20;;;;;;;17.20;8.25;;;;;;;24.60;69.84;94730.13;6306121;22;20409;-79
2022/06/30 08:05:49;;;;;;;13.10;7.70;;;;;;;24.65;69.63;94729.97;6306080;22;20172;-79
2022/06/30 08:08:23;;;;;;;13.80;8.50;;;;;;;24.62;65.54;94733.25;6306080;22;20175;-80
2022/06/30 08:10:57;;;;;;;13.98;8.23;;;;;;;24.64;66.15;94728.44;6306098;22;20231;-79
2022/06/30 08:13:26;;;;;;;13.52;8.30;;;;;;;24.68;66.24;94732.03;6305723;22;20510;-79
2022/06/30 08:15:55;;;;;;;28.95;8.32;;;;;;;24.74;66.85;94727.38;6279038;22;20666;-81
2022/06/30 08:18:25;;;;;;;11.75;8.68;;;;;;;24.80;65.38;94729.63;6305765;22;20172;-80
2022/06/30 08:20:55;;;;;;;13.68;9.00;;;;;;;24.91;65.11;94719.50;6304688;22;20613;-80
2022/06/30 08:23:28;;;;;;;18.85;9.07;;;;;;;25.06;63.85;94711.13;6306005;22;20267;-80
2022/06/30 08:25:56;;;;;;;11.40;8.00;;;;;;;25.05;64.19;94712.22;6304543;22;20429;-80
2022/06/30 08:28:26;;;;;;;12.40;7.70;;;;;;;25.18;66.89;94714.00;6305490;22;20642;-80
2022/06/30 08:30:55;;;;;;;14.18;8.32;;;;;;;25.28;66.82;94719.03;6305652;22;20176;-78
2022/06/30 08:33:24;;;;;;;12.07;8.75;;;;;;;25.37;63.97;94727.03;6305539;22;20168;-80
2022/06/30 08:35:56;;;;;;;15.82;9.07;;;;;;;25.35;62.87;94722.06;6303938;22;20171;-81
2022/06/30 08:38:26;;;;;;;15.88;8.73;;;;;;;25.34;62.54;94717.81;6305607;22;20195;-80
2022/06/30 08:43:47;;;;;;;18.80;8.77;;;;;;;25.35;63.05;94727.38;6305576;22;20277;-80
2022/06/30 08:46:22;;;;;;;18.65;9.07;;;;;;;25.46;62.56;94725.19;6305796;22;20163;-80
2022/06/30 08:48:56;;;;;;;19.65;8.63;;;;;;;25.64;61.13;94726.84;6305695;22;20615;-80
2022/06/30 08:51:28;;;;;;;16.92;9.27;;;;;;;25.77;59.36;94723.25;6305201;22;20156;-80
2022/06/30 08:54:03;;;;;;;16.85;8.88;;;;;;;25.87;59.55;94727.50;6298042;22;20480;-81
2022/06/30 08:56:36;;;;;;;16.95;8.57;;;;;;;25.98;59.05;94730.66;6304892;22;20603;-80
2022/06/30 08:59:08;;;;;;;15.45;8.25;;;;;;;26.06;58.80;94730.66;6305555;22;20153;-81
2022/06/30 09:01:39;;;;;;;15.65;7.97;;;;;;;26.34;59.52;94723.97;6306120;22;20160;-80
2022/06/30 09:04:12;;;;;;;15.90;8.00;;;;;;;26.58;58.13;94723.44;6306423;22;20180;-79
2022/06/30 09:06:49;;;;;;;17.90;9.15;;;;;;;26.65;56.38;94723.75;6305846;22;20214;-79
2022/06/30 09:09:25;;;;;;;16.15;8.27;;;;;;;26.74;56.77;94718.41;6305902;22;20555;-79
2022/06/30 09:11:57;;;;;;;14.38;8.30;;;;;;;26.91;56.82;94716.50;6306690;22;20227;-79
2022/06/30 09:14:43;;;;;;;18.08;8.80;;;;;;;27.07;55.42;94716.00;6305363;22;20465;-81
2022/06/30 09:17:27;;;;;;;20.35;8.73;;;;;;;27.16;54.96;94719.41;6305620;22;20152;-80
2022/06/30 09:20:00;;;;;;;14.10;8.38;;;;;;;27.36;52.99;94718.69;6305553;22;20164;-76
2022/06/30 09:22:32;;;;;;;12.93;7.70;;;;;;;27.51;54.26;94715.50;6305102;22;20584;-76
2022/06/30 09:25:08;;;;;;;22.98;8.10;;;;;;;27.70;54.92;94702.50;6304764;22;20195;-76
2022/06/30 09:27:58;;;;;;;17.70;7.22;;;;;;;27.88;51.47;94703.94;6304319;22;20156;-77
2022/06/30 09:30:27;;;;;;;15.63;7.15;;;;;;;28.03;52.06;94710.59;6305734;22;20612;-76
2022/06/30 09:33:02;;;;;;;13.27;7.60;;;;;;;28.18;50.43;94715.41;6305846;22;20521;-76
2022/06/30 09:35:34;;;;;;;10.02;6.55;;;;;;;28.24;48.35;94708.75;6305639;22;20156;-76
2022/06/30 09:38:11;;;;;;;17.60;6.43;;;;;;;28.36;48.19;94708.00;6306269;22;20600;-76
2022/06/30 09:43:34;;;;;;;11.63;6.50;;;;;;;28.54;47.47;94712.09;6305096;22;20544;-77
2022/06/30 09:46:12;;;;;;;8.00;6.65;;;;;;;28.63;46.73;94715.44;6304889;22;20167;-76
2022/06/30 09:48:45;;;;;;;9.38;6.50;;;;;;;28.67;47.12;94705.69;6305737;22;20614;-76
2022/06/30 09:51:21;;;;;;;7.90;5.88;;;;;;;28.73;46.23;94708.94;6302830;22;20627;-76
2022/06/30 09:54:09;;;;;;;9.48;6.10;;;;;;;28.83;47.40;94703.94;6304924;22;20505;-76
2022/06/30 09:56:44;;;;;;;8.88;6.32;;;;;;;29.01;47.48;94709.88;6305420;22;20156;-77
2022/06/30 09:59:26;;;;;;;9.73;5.70;;;;;;;29.07;44.67;94704.00;6305441;22;20210;-76
2022/06/30 10:01:58;;;;;;;9.68;6.20;;;;;;;29.11;46.31;94702.22;6304647;22;20192;-76
2022/06/30 10:04:29;;;;;;;11.27;6.30;;;;;;;29.29;46.55;94700.16;6305461;22;20176;-76
2022/06/30 10:07:00;;;;;;;10.48;6.03;;;;;;;29.40;46.59;94695.13;6305782;22;20153;-76
2022/06/30 10:09:32;;;;;;;10.52;5.97;;;;;;;29.46;44.03;94693.78;6304654;22;20213;-76
2022/06/30 10:12:02;;;;;;;7.05;5.85;;;;;;;29.55;44.66;94697.13;6305244;22;20210;-77
2022/06/30 10:14:35;;;;;;;11.98;6.30;;;;;;;29.71;43.99;94693.41;6305498;22;20160;-77
2022/06/30 10:17:08;;;;;;;14.10;6.13;;;;;;;29.90;44.87;94692.09;6305660;22;20152;-76
2022/06/30 10:19:38;;;;;;;9.70;5.75;;;;;;;30.06;44.74;94685.66;6305411;22;20184;-77
2022/06/30 10:22:08;;;;;;;8.18;5.78;;;;;;;30.24;44.15;94684.28;6305236;22;20170;-77
2022/06/30 10:24:41;;;;;;;8.07;5.32;;;;;;;30.34;42.53;94688.34;6305426;22;20199;-78
2022/06/30 10:27:26;;;;;;;9.85;5.60;;;;;;;30.30;41.97;94680.19;6305540;22;20156;-78
2022/06/30 10:29:59;;;;;;;12.45;5.35;;;;;;;30.39;41.99;94690.06;6305490;22;20156;-79
2022/06/30 10:32:57;;;;;;;14.27;5.80;;;;;;;30.57;40.97;94694.78;6305535;22;20187;-77
2022/06/30 10:35:38;;;;;;;6.60;4.82;;;;;;;30.68;41.04;94687.03;6284489;22;20164;-77
2022/06/30 10:38:31;;;;;;;7.50;4.95;;;;;;;30.80;40.09;94671.59;6303903;22;20206;-77
2022/06/30 10:41:12;;;;;;;11.57;4.95;;;;;;;30.70;38.20;94680.19;6305252;22;20549;-76
2022/06/30 10:44:22;;;;;;;6.32;4.70;;;;;;;30.72;37.96;94682.50;6304948;22;20172;-78
2022/06/30 10:47:11;;;;;;;5.68;4.57;;;;;;;30.73;36.65;94671.44;6305332;22;20514;-78
2022/06/30 10:50:08;;;;;;;4.80;4.30;;;;;;;30.89;37.31;94677.59;6304903;22;20149;-78
2022/06/30 10:52:44;;;;;;;6.15;4.63;;;;;;;31.10;37.65;94673.91;6304991;22;20184;-78
2022/06/30 10:55:15;;;;;;;9.18;4.30;;;;;;;31.29;37.91;94669.38;6304799;22;20293;-78
2022/06/30 10:58:07;;;;;;;5.65;4.18;;;;;;;31.51;36.40;94668.00;6304103;22;20200;-78
2022/06/30 11:00:53;;;;;;;5.40;3.88;;;;;;;31.81;33.98;94671.75;6304839;22;20478;-78
2022/06/30 11:03:57;;;;;;;4.75;3.63;;;;;;;31.94;33.40;94670.50;6304497;22;20674;-78
2022/06/30 11:06:58;;;;;;;7.40;4.00;;;;;;;32.10;33.60;94665.09;6299345;22;20164;-77
2022/06/30 11:10:04;;;;;;;9.23;3.83;;;;;;;32.41;33.36;94664.94;6304550;22;20579;-78
2022/06/30 11:13:10;;;;;;;9.00;4.40;;;;;;;32.67;33.66;94658.16;6304866;22;20576;-78
2022/06/30 11:16:04;;;;;;;5.43;3.90;;;;;;;32.81;32.92;94658.41;6305083;22;20160;-78
2022/06/30 11:18:38;;;;;;;6.97;4.22;;;;;;;32.86;33.26;94652.69;6304599;22;20160;-78
2022/06/30 11:21:09;;;;;;;5.32;3.85;;;;;;;32.91;32.05;94650.47;6305407;22;20235;-78
2022/06/30 11:23:44;;;;;;;14.18;4.05;;;;;;;33.06;33.35;94648.81;6304562;22;20184;-78
2022/06/30 11:29:03;;;;;;;7.43;3.78;;;;;;;33.08;32.55;94652.72;6307107;22;20657;-81
2022/06/30 11:31:36;;;;;;;5.07;3.63;;;;;;;33.17;31.33;94649.78;6304523;22;20172;-81
2022/06/30 11:34:07;;;;;;;3.85;3.50;;;;;;;33.16;31.30;94652.84;6305836;22;20642;-86
2022/06/30 11:36:39;;;;;;;6.13;3.50;;;;;;;33.29;32.29;94641.50;6296114;22;20160;-82
2022/06/30 11:39:11;;;;;;;5.60;3.67;;;;;;;33.35;32.27;94647.38;6307105;22;20152;-81
2022/06/30 11:41:59;;;;;;;11.77;3.80;;;;;;;33.39;32.30;94640.13;6307024;22;20172;-79
2022/06/30 11:44:33;;;;;;;4.45;3.80;;;;;;;33.41;31.45;94638.63;6307510;22;20184;-79
2022/06/30 11:47:07;;;;;;;5.57;3.75;;;;;;;33.52;32.08;94639.53;6307413;22;20152;-79
2022/06/30 11:49:46;;;;;;;5.47;3.50;;;;;;;33.44;31.77;94642.50;6308113;22;20230;-80
2022/06/30 11:52:20;;;;;;;5.38;3.58;;;;;;;33.51;31.42;94645.28;6307344;22;20163;-82
2022/06/30 11:54:51;;;;;;;4.47;3.50;;;;;;;33.68;30.86;94644.81;6307564;22;20155;-80
2022/06/30 11:57:23;;;;;;;6.93;3.85;;;;;;;33.57;31.79;94624.97;6307555;22;20203;-81
2022/06/30 11:59:56;;;;;;;8.13;4.32;;;;;;;33.66;31.36;94637.06;6307847;22;20164;-81
2022/06/30 12:02:29;;;;;;;5.47;3.40;;;;;;;33.73;31.68;94627.53;6306805;22;20532;-81
2022/06/30 12:05:00;;;;;;;6.15;3.60;;;;;;;33.94;31.59;94625.88;6306993;22;20704;-83
2022/06/30 12:07:31;;;;;;;3.85;3.40;;;;;;;34.15;31.90;94625.38;6305462;22;20172;-82
2022/06/30 12:10:02;;;;;;;4.15;3.35;;;;;;;34.16;31.77;94610.75;6307808;22;20160;-82
2022/06/30 12:12:33;;;;;;;5.00;3.28;;;;;;;34.28;31.67;94624.00;6307641;22;20227;-80
2022/06/30 12:15:08;;;;;;;3.70;3.33;;;;;;;34.14;30.16;94630.00;6307740;22;20518;-83
2022/06/30 12:17:41;;;;;;;3.15;2.80;;;;;;;34.12;30.01;94616.09;6307772;22;20183;-82
2022/06/30 12:20:15;;;;;;;4.05;3.00;;;;;;;34.27;30.43;94619.75;6307430;22;20160;-81
2022/06/30 12:22:46;;;;;;;10.23;3.00;;;;;;;34.41;29.99;94614.50;6306877;22;20160;-82
2022/06/30 12:25:20;;;;;;;5.03;2.63;;;;;;;34.49;28.89;94610.72;6306528;22;20526;-81
2022/06/30 12:27:50;;;;;;;4.68;2.88;;;;;;;34.54;28.95;94617.72;6307145;22;20266;-82